Main page
METAR-TAF:

METAR-TAF

Airports :

Copernicus Airport Wrocław

Wrocław, Poland

latitude: 51-06N, longitude: 016-53E, elevation: 120 m

Current weather observation

The report was made 16 minutes ago, at 16:30 UTC
Wind 5 kt from the South/Southeast
Temperature 28°C
Humidity 40%
Pressure 1018 hPa
Visibility 10 km or more
no clouds below 1500 m and no cumulonimbus

METAR: EPWR 201630Z 15005KT CAVOK 28/13 Q1018

Time: 18:46 (16:46 UTC)

Forecast

The report was made 2 hours and 16 minutes ago, at 14:30 UTC
Forecast valid from 20 at 15 UTC to 21 at 15 UTC
Wind 5 kt from the South
Visibility 10 km or more
no clouds below 1500 m and no cumulonimbus
Becoming
from 21 at 06 UTC to 21 at 08 UTC
Wind 15 kt from the West
Probability 30% :
Temporary
from 21 at 13 UTC to 21 at 15 UTC
Wind 25 kt from the West with gusts up to 35 kt
Broken clouds at a height of 2500 ft, Cumulonimbus.
thunderstorm, rain

TAF: EPWR 201430Z 2015/2115 19005KT CAVOK BECMG 2106/2108 26015KT PROB30 TEMPO 2113/2115 26025G35KT TSRA BKN025CB

Weather observations and forecasts of more than 4000 airports (METAR and TAF reports).

The available stations are represented by yellow and red dots on the map.

Hover mouse over dot to see the name of the station.

Then click to see weather observations and forecasts.

To change the map : click on the green buttons with a black cross to zoom in, on the green button with a dash to zoom out, or on the green arrows for adjacent maps.


METAR-TAF: